首页
METAR-TAF:

METAR-TAF

机场 :

沙迦國際機場

夏尔迦, 阿拉伯联合酋长国

纬度: 25-20N, 经度: 055-31E, 海拔: 35米

当前天气观测

该预报发布于21分钟前的16:00 UTC
风速1节,风向多变
温度 21°C
湿度 64%
气压 1013 hPa
能见度10公里或以上
1500米以下无云,无积雨云

METAR: OMSJ 121600Z VRB01KT CAVOK 21/14 Q1013 NOSIG

时间: 20:21 (16:21 UTC)

预报

该预报发布于5小时和24分钟前的10:57 UTC
预报有效从12日的 12点(UTC)到 13日的 18点(UTC)
风速13节,风向西转西北
能见度10公里或以上
少量云层高于4500英尺
成为
从 12日的 15点(UTC)到 12日的 17点(UTC)
风速5节,风向南转南东
几率 30%
从 13日的 01点(UTC)到 13日的 05点(UTC)
能見度: 3000
轻雾
成为
从 13日的 09点(UTC)到 13日的 11点(UTC)
风速12节,风向
成为
从 13日的 14点(UTC)到 13日的 16点(UTC)
风速7节,风向
几率 30% :
短暂存在
从 13日的 14点(UTC)到 13日的 17点(UTC)
风速15节,风向多变,有时为25节阵风
少量云层高于4000英尺, 塔状积云.

TAF: OMSJ 121057Z 1212/1318 30013KT 9999 FEW045 BECMG 1215/1217 16005KT PROB30 1301/1305 3000 BR BECMG 1309/1311 36012KT BECMG 1314/1316 10007KT PROB30 TEMPO 1314/1317 VRB15G25KT FEW040TCU

超过4000个机场的气象观测和天气预报(METAR&TAF报告)。

可查询的气象台以黄色和红色小点在地图上表示。

将鼠标移到小点上方,可查看气象台名称。

然后点击查看天气观测和预报。

如需切换地图:点击带黑十字的绿色按钮放大地图;点击带横线的绿色按钮缩小地图;或者点击绿色箭头查看邻近地区的地图。


METAR-TAF: